Time;durP1;ratioP1;P1;durP2;ratioP2;P2;SDS_P1;SDS_P2;PMS_P1;PMS_P2;Temp;Humidity;BMP_temperature;BMP_pressure;BME280_temperature;BME280_humidity;BME280_pressure;Samples;Min_cycle;Max_cycle;Signal;HPM_P1;HPM_P2
2023/02/04 00:02:44;;;;;;;12.30;6.60;;;;;;;4.31;74.23;98178.05;229449;1199;139395;-73
2023/02/04 00:07:48;;;;;;;13.60;6.30;;;;;;;4.29;74.54;98167.77;230917;1193;138762;-71
2023/02/04 00:12:51;;;;;;;15.10;6.40;;;;;;;4.29;74.53;98168.98;230596;1198;138722;-71
2023/02/04 00:17:55;;;;;;;14.60;5.90;;;;;;;4.36;74.82;98163.55;231853;1193;139163;-72
2023/02/04 00:22:58;;;;;;;13.30;5.60;;;;;;;4.48;74.89;98161.36;230194;1197;140185;-72
2023/02/04 00:28:03;;;;;;;12.10;5.40;;;;;;;4.61;74.48;98159.48;230272;1198;139310;-70
2023/02/04 00:33:06;;;;;;;10.40;5.20;;;;;;;4.68;74.34;98159.77;229300;1197;138943;-70
2023/02/04 00:38:10;;;;;;;11.80;4.80;;;;;;;4.67;74.53;98156.47;230015;1193;138633;-71
2023/02/04 00:43:13;;;;;;;9.90;4.80;;;;;;;4.69;74.64;98155.52;231433;1193;139107;-71
2023/02/04 00:48:16;;;;;;;11.60;4.70;;;;;;;4.73;74.58;98153.36;231863;1197;139587;-71
2023/02/04 00:53:20;;;;;;;11.30;4.50;;;;;;;4.79;74.59;98151.66;230549;1193;139536;-72
2023/02/04 00:58:23;;;;;;;11.60;4.70;;;;;;;4.84;74.59;98139.26;229650;1193;138704;-73
2023/02/04 01:03:26;;;;;;;15.40;5.10;;;;;;;4.87;74.82;98139.27;231041;1193;138583;-70
2023/02/04 01:08:31;;;;;;;9.30;4.10;;;;;;;4.86;74.90;98138.61;230794;1193;138779;-72
2023/02/04 01:13:34;;;;;;;9.10;4.00;;;;;;;4.91;74.62;98132.72;229298;1199;139094;-71
2023/02/04 01:18:37;;;;;;;11.00;4.50;;;;;;;5.01;74.69;98123.05;229603;1193;139633;-71
2023/02/04 01:23:41;;;;;;;9.50;4.00;;;;;;;5.07;74.02;98117.47;233181;1197;138905;-72
2023/02/04 01:28:45;;;;;;;9.40;3.50;;;;;;;5.04;74.02;98115.01;229878;1197;139266;-71
2023/02/04 01:33:48;;;;;;;6.20;3.30;;;;;;;4.96;74.11;98112.93;230961;1193;138561;-71
2023/02/04 01:38:53;;;;;;;4.90;2.60;;;;;;;4.94;74.07;98107.92;229867;1199;139533;-72
2023/02/04 01:43:57;;;;;;;7.70;2.90;;;;;;;4.96;74.00;98107.67;230684;1193;139303;-71
2023/02/04 01:49:01;;;;;;;5.70;2.40;;;;;;;4.94;73.82;98108.85;229954;1196;138655;-70
2023/02/04 01:54:08;;;;;;;3.70;2.00;;;;;;;4.92;73.47;98106.66;229804;1196;138683;-70
2023/02/04 01:59:14;;;;;;;4.40;2.30;;;;;;;4.91;73.60;98109.39;230479;1194;138301;-71
2023/02/04 02:04:25;;;;;;;3.30;1.60;;;;;;;4.93;73.78;98107.69;231103;1199;139723;-73
2023/02/04 02:09:30;;;;;;;3.40;1.80;;;;;;;4.92;73.69;98104.73;231061;1197;140823;-70
2023/02/04 02:14:34;;;;;;;3.40;1.60;;;;;;;5.01;73.41;98111.66;232597;1198;138897;-73
2023/02/04 02:19:40;;;;;;;3.10;1.50;;;;;;;5.02;73.21;98112.10;233670;1197;138536;-70
2023/02/04 02:24:43;;;;;;;2.60;1.40;;;;;;;4.96;72.94;98114.35;231709;1193;138475;-72
2023/02/04 02:29:47;;;;;;;4.00;1.90;;;;;;;4.91;73.46;98129.41;229511;1193;139387;-72
2023/02/04 02:34:50;;;;;;;3.70;1.90;;;;;;;4.78;73.66;98138.19;229090;1197;139197;-72
2023/02/04 02:39:54;;;;;;;3.30;1.60;;;;;;;4.74;73.80;98136.10;231060;1198;139654;-71
2023/02/04 02:44:58;;;;;;;3.60;2.10;;;;;;;4.84;73.61;98136.63;229538;1199;138903;-71
2023/02/04 02:50:03;;;;;;;3.70;1.70;;;;;;;4.96;73.35;98143.55;231749;1196;138684;-72
2023/02/04 02:55:14;;;;;;;3.50;1.60;;;;;;;4.99;72.84;98152.69;233944;1194;138592;-71
2023/02/04 03:00:24;;;;;;;2.30;1.30;;;;;;;5.04;72.93;98158.27;231653;1193;139133;-71
2023/02/04 03:05:33;;;;;;;2.70;1.20;;;;;;;5.02;72.28;98170.67;229670;1193;138363;-70
2023/02/04 03:10:36;;;;;;;3.10;1.00;;;;;;;4.96;72.39;98168.46;232704;1192;138886;-71
2023/02/04 03:15:42;;;;;;;2.00;0.90;;;;;;;4.93;71.98;98180.62;231691;1196;138641;-71
2023/02/04 03:20:49;;;;;;;1.40;1.00;;;;;;;4.88;71.98;98184.05;231500;1196;138829;-72
2023/02/04 03:25:53;;;;;;;2.30;1.00;;;;;;;4.87;71.40;98192.16;229941;1198;139181;-70
2023/02/04 03:30:58;;;;;;;2.60;0.90;;;;;;;4.86;71.37;98199.30;230041;1196;138628;-73
2023/02/04 03:36:02;;;;;;;1.00;0.80;;;;;;;4.88;71.15;98211.62;230315;1195;138348;-72
2023/02/04 03:41:06;;;;;;;2.10;1.10;;;;;;;4.85;71.02;98228.65;229012;1199;138527;-71
2023/02/04 03:46:09;;;;;;;1.00;0.70;;;;;;;4.74;70.64;98241.91;229975;1196;138474;-71
2023/02/04 03:51:13;;;;;;;0.60;0.50;;;;;;;4.55;70.84;98253.56;230131;1199;138863;-72
2023/02/04 03:56:16;;;;;;;0.90;0.60;;;;;;;4.44;71.21;98260.77;229906;1195;139506;-73
2023/02/04 04:01:20;;;;;;;0.60;0.40;;;;;;;4.41;71.32;98274.44;231160;1194;139032;-71
2023/02/04 04:06:23;;;;;;;1.40;0.60;;;;;;;4.38;71.40;98306.07;233747;1193;138744;-71
2023/02/04 04:11:27;;;;;;;1.60;0.60;;;;;;;4.37;71.11;98321.39;231110;1193;138493;-70
2023/02/04 04:16:30;;;;;;;1.20;0.60;;;;;;;4.34;71.26;98336.79;233768;1192;138961;-71
2023/02/04 04:21:33;;;;;;;1.00;0.60;;;;;;;4.21;71.16;98366.02;229472;1196;139908;-73
2023/02/04 04:26:37;;;;;;;1.90;1.10;;;;;;;4.15;71.51;98391.56;229829;1193;139200;-75
2023/02/04 04:31:40;;;;;;;3.90;1.90;;;;;;;3.97;70.72;98419.45;230559;1193;138961;-71
2023/02/04 04:36:44;;;;;;;4.10;2.30;;;;;;;3.76;70.92;98437.91;230078;1193;138739;-72
2023/02/04 04:41:47;;;;;;;5.80;3.70;;;;;;;3.62;71.25;98465.55;230454;1193;138756;-71
2023/02/04 04:46:50;;;;;;;5.90;4.60;;;;;;;3.55;70.95;98495.50;229845;1197;138809;-71
2023/02/04 04:51:54;;;;;;;5.80;4.40;;;;;;;3.39;71.15;98528.77;229417;1196;138862;-72
2023/02/04 04:56:57;;;;;;;5.30;4.70;;;;;;;3.22;70.62;98548.58;229582;1195;138285;-72
2023/02/04 05:02:01;;;;;;;6.40;4.40;;;;;;;2.99;70.66;98593.81;230212;1193;138890;-72
2023/02/04 05:07:04;;;;;;;5.50;4.20;;;;;;;2.88;71.29;98622.27;229278;1199;139551;-73
2023/02/04 05:12:07;;;;;;;5.40;3.50;;;;;;;2.78;70.85;98653.98;232735;1193;138262;-71
2023/02/04 05:17:11;;;;;;;6.20;3.30;;;;;;;2.57;70.85;98685.75;231100;1193;138411;-72
2023/02/04 05:22:14;;;;;;;4.40;3.80;;;;;;;2.51;71.23;98718.35;229094;1199;138916;-71
2023/02/04 05:27:17;;;;;;;4.50;3.10;;;;;;;2.54;71.25;98754.50;229607;1196;139285;-72
2023/02/04 05:32:21;;;;;;;4.70;2.50;;;;;;;2.47;71.21;98778.71;230421;1197;138335;-70
2023/02/04 05:37:24;;;;;;;3.70;2.20;;;;;;;2.38;71.23;98807.73;232182;1196;139674;-71
2023/02/04 05:42:27;;;;;;;5.40;2.40;;;;;;;2.28;71.08;98830.48;231111;1197;141148;-72
2023/02/04 05:47:31;;;;;;;4.40;2.30;;;;;;;2.22;71.34;98869.00;230275;1195;138970;-70
2023/02/04 05:52:34;;;;;;;3.10;2.20;;;;;;;2.15;71.26;98897.04;230296;1193;139654;-73
2023/02/04 05:57:38;;;;;;;2.90;2.40;;;;;;;2.11;71.31;98917.42;234816;1192;138824;-71
2023/02/04 06:02:41;;;;;;;2.60;2.30;;;;;;;2.08;71.40;98951.83;234845;1196;138387;-72
2023/02/04 06:07:44;;;;;;;4.40;2.50;;;;;;;2.05;71.90;98985.34;231319;1193;138689;-72
2023/02/04 06:12:48;;;;;;;3.10;2.10;;;;;;;2.02;71.41;99024.94;234709;1193;138901;-71
2023/02/04 06:17:52;;;;;;;4.70;2.40;;;;;;;2.01;71.27;99057.53;235421;1193;138672;-70
2023/02/04 06:22:55;;;;;;;3.40;2.40;;;;;;;2.02;71.10;99086.55;230900;1193;138813;-71
2023/02/04 06:27:58;;;;;;;3.40;2.10;;;;;;;2.07;70.89;99117.04;232487;1192;138261;-71
2023/02/04 06:33:02;;;;;;;3.10;2.70;;;;;;;2.07;70.40;99135.23;230543;1194;138406;-72
2023/02/04 06:38:05;;;;;;;3.80;2.50;;;;;;;2.00;70.15;99165.00;232099;1196;138738;-71
2023/02/04 06:43:08;;;;;;;4.20;2.50;;;;;;;1.90;69.95;99197.94;230019;1193;138209;-72
2023/02/04 06:48:12;;;;;;;3.00;1.80;;;;;;;1.81;68.82;99223.35;230917;1196;138627;-71
2023/02/04 06:53:15;;;;;;;3.10;2.10;;;;;;;1.70;68.81;99260.52;229237;1196;139659;-71
2023/02/04 06:58:18;;;;;;;2.90;2.20;;;;;;;1.78;68.82;99294.27;230088;1193;139077;-71
2023/02/04 07:03:21;;;;;;;3.70;2.30;;;;;;;1.83;68.25;99321.25;230254;1196;139467;-71
2023/02/04 07:08:25;;;;;;;4.90;3.00;;;;;;;1.81;67.79;99349.64;231980;1193;139127;-71
2023/02/04 07:13:28;;;;;;;5.20;3.10;;;;;;;1.82;67.20;99374.65;229130;1194;138556;-70
2023/02/04 07:18:32;;;;;;;3.70;2.80;;;;;;;1.82;67.08;99402.96;230172;1193;140528;-71
2023/02/04 07:23:35;;;;;;;4.80;2.80;;;;;;;1.82;67.00;99421.17;232516;1192;138696;-70
2023/02/04 07:28:40;;;;;;;5.00;3.00;;;;;;;1.82;66.79;99443.55;230107;1197;138463;-71
2023/02/04 07:33:43;;;;;;;2.70;1.70;;;;;;;1.81;66.55;99467.54;230578;1193;138858;-70
2023/02/04 07:38:46;;;;;;;4.70;2.70;;;;;;;1.82;66.46;99499.01;230041;1193;138763;-69
2023/02/04 07:43:50;;;;;;;3.80;2.60;;;;;;;1.82;66.20;99520.89;229798;1196;138852;-69
2023/02/04 07:48:54;;;;;;;8.10;2.90;;;;;;;1.84;65.74;99541.30;231248;1193;139722;-69
2023/02/04 07:53:57;;;;;;;4.20;2.80;;;;;;;1.86;65.55;99554.75;229536;1197;139439;-70
2023/02/04 07:59:00;;;;;;;4.40;2.90;;;;;;;1.92;65.32;99585.06;233879;1193;139308;-69
2023/02/04 08:04:03;;;;;;;5.20;2.90;;;;;;;1.93;64.85;99608.84;230802;1193;138667;-72
2023/02/04 08:09:07;;;;;;;5.30;2.80;;;;;;;1.93;64.52;99620.21;229370;1196;139603;-70
2023/02/04 08:14:10;;;;;;;5.00;2.80;;;;;;;1.95;64.90;99634.36;230630;1193;138599;-69
2023/02/04 08:19:17;;;;;;;3.30;2.60;;;;;;;1.96;64.62;99639.23;229495;1196;139221;-71
2023/02/04 08:24:21;;;;;;;4.00;2.50;;;;;;;1.95;64.30;99657.80;229018;1193;138942;-70
2023/02/04 08:29:24;;;;;;;5.10;2.80;;;;;;;1.98;64.44;99668.95;229126;1198;138609;-69
2023/02/04 08:34:28;;;;;;;3.50;2.50;;;;;;;2.05;63.97;99679.67;229261;1199;138812;-71
2023/02/04 08:39:31;;;;;;;4.60;2.90;;;;;;;2.07;63.51;99699.42;229650;1194;138460;-70
2023/02/04 08:44:35;;;;;;;5.50;3.00;;;;;;;2.06;63.03;99713.45;233247;1193;138974;-70
2023/02/04 08:49:38;;;;;;;4.40;2.90;;;;;;;2.11;62.60;99724.90;230092;1198;139601;-70
2023/02/04 08:54:42;;;;;;;5.00;3.20;;;;;;;2.09;61.84;99732.81;228973;1198;138348;-71
2023/02/04 08:59:45;;;;;;;4.30;2.80;;;;;;;2.08;62.26;99746.30;231291;1193;139288;-70
2023/02/04 09:04:48;;;;;;;5.90;3.30;;;;;;;2.18;62.49;99771.18;231059;1196;139268;-70
2023/02/04 09:09:52;;;;;;;5.00;3.50;;;;;;;2.33;62.64;99783.19;231244;1196;138559;-70
2023/02/04 09:14:55;;;;;;;5.50;3.10;;;;;;;2.48;62.17;99792.40;229212;1193;138817;-70
2023/02/04 09:19:58;;;;;;;6.50;3.30;;;;;;;2.57;61.98;99806.95;229772;1193;138410;-71
2023/02/04 09:25:02;;;;;;;6.10;3.70;;;;;;;2.66;62.34;99811.02;234777;1193;138818;-69
2023/02/04 09:30:06;;;;;;;5.60;3.30;;;;;;;2.80;61.87;99813.73;230000;1197;138824;-70
2023/02/04 09:35:10;;;;;;;6.30;3.60;;;;;;;2.94;61.45;99826.63;229376;1199;138588;-70
2023/02/04 09:40:19;;;;;;;4.50;3.10;;;;;;;3.04;61.33;99825.55;231855;1197;140415;-70
2023/02/04 09:45:29;;;;;;;6.90;3.60;;;;;;;3.15;61.18;99829.91;232392;1193;138807;-70
2023/02/04 09:50:32;;;;;;;4.70;3.30;;;;;;;3.27;60.91;99839.13;231857;1193;138339;-70
2023/02/04 09:55:39;;;;;;;6.00;3.30;;;;;;;3.51;60.78;99846.90;229095;1197;138296;-70
2023/02/04 10:00:43;;;;;;;;;;;;;;;3.59;60.66;99858.85;230349;1196;138579;-70
2023/02/04 10:05:48;;;;;;;9.80;6.20;;;;;;;3.53;61.01;99870.73;229189;1198;125159;-69
2023/02/04 10:10:51;;;;;;;5.10;3.80;;;;;;;3.40;62.09;99877.83;228983;1193;138493;-71
2023/02/04 10:15:55;;;;;;;5.60;3.80;;;;;;;3.36;62.06;99877.91;228993;1198;138860;-71
2023/02/04 10:21:07;;;;;;;5.20;3.90;;;;;;;3.28;61.62;99888.58;230203;1197;138425;-71
2023/02/04 10:26:12;;;;;;;6.40;3.90;;;;;;;3.11;62.06;99900.98;229088;1198;138449;-72
2023/02/04 10:31:46;;;;;;;7.40;4.10;;;;;;;3.09;62.67;99900.50;230592;1193;139718;-70
2023/02/04 10:36:53;;;;;;;9.20;4.30;;;;;;;3.33;62.01;99915.85;229383;1193;138585;-70
2023/02/04 10:41:59;;;;;;;4.40;3.00;;;;;;;3.42;60.54;99925.84;229674;1193;138907;-71
2023/02/04 10:47:08;;;;;;;4.50;3.00;;;;;;;3.63;59.42;99922.11;231390;1194;138325;-71
2023/02/04 10:52:16;;;;;;;3.50;2.60;;;;;;;3.85;58.66;99932.73;230395;1193;138692;-74
2023/02/04 10:57:27;;;;;;;6.20;2.90;;;;;;;4.05;57.60;99944.60;231264;1196;138687;-72
2023/02/04 11:02:36;;;;;;;3.90;2.80;;;;;;;4.33;57.04;99954.02;232041;1193;138433;-72
2023/02/04 11:07:39;;;;;;;5.80;2.30;;;;;;;4.56;55.69;99959.31;233002;1193;138680;-72
2023/02/04 11:12:51;;;;;;;4.00;2.80;;;;;;;4.65;54.59;99959.09;230397;1198;139965;-71
2023/02/04 11:18:05;;;;;;;5.00;3.10;;;;;;;4.82;53.96;99957.98;233811;1193;138390;-72
2023/02/04 11:23:25;;;;;;;4.70;2.30;;;;;;;4.61;52.80;99962.88;231429;1193;138473;-73
2023/02/04 11:28:56;;;;;;;3.10;2.00;;;;;;;4.33;52.30;99970.89;230765;1193;138857;-72
2023/02/04 11:34:12;;;;;;;4.20;2.30;;;;;;;4.06;51.38;99977.94;229256;1196;138138;-75
2023/02/04 11:39:17;;;;;;;3.90;2.50;;;;;;;4.11;52.56;99981.33;229588;1198;138515;-71
2023/02/04 11:44:21;;;;;;;5.50;2.70;;;;;;;4.07;52.20;99988.45;229627;1196;138784;-71
2023/02/04 11:49:26;;;;;;;5.30;2.80;;;;;;;3.97;51.59;99993.93;228837;1200;138472;-72
2023/02/04 11:54:29;;;;;;;3.40;2.60;;;;;;;3.93;52.30;100007.70;229626;1198;138968;-72
2023/02/04 11:59:33;;;;;;;4.30;2.40;;;;;;;4.04;51.73;100015.73;234253;1193;139604;-72
2023/02/04 12:04:36;;;;;;;3.60;2.20;;;;;;;4.18;51.04;100018.45;230632;1195;138247;-71
2023/02/04 12:09:48;;;;;;;3.10;2.10;;;;;;;4.18;49.97;100023.36;232557;1198;139161;-72
2023/02/04 12:15:12;;;;;;;2.90;2.10;;;;;;;4.33;50.02;100023.23;232549;1193;139743;-76
2023/02/04 12:20:15;;;;;;;6.60;2.80;;;;;;;4.55;50.01;100035.05;230782;1193;138714;-69
2023/02/04 12:25:19;;;;;;;5.90;3.30;;;;;;;4.78;49.83;100041.23;230693;1197;138820;-70
2023/02/04 12:30:24;;;;;;;5.20;3.00;;;;;;;4.60;49.44;100046.90;232105;1193;138994;-72
2023/02/04 12:35:28;;;;;;;5.30;2.50;;;;;;;4.38;49.04;100051.21;229434;1193;138859;-70
2023/02/04 12:40:31;;;;;;;3.60;2.40;;;;;;;4.03;49.30;100067.02;230195;1195;138774;-72
2023/02/04 12:45:36;;;;;;;5.30;2.20;;;;;;;3.78;49.76;100076.61;230756;1195;138415;-71
2023/02/04 12:50:40;;;;;;;2.90;2.10;;;;;;;3.50;50.30;100088.30;232272;1195;138536;-71
2023/02/04 12:55:43;;;;;;;5.10;2.90;;;;;;;3.26;50.07;100099.39;234185;1193;138919;-72
2023/02/04 13:00:46;;;;;;;3.70;2.20;;;;;;;3.18;50.10;100102.48;230998;1193;138574;-71
2023/02/04 13:05:50;;;;;;;5.60;2.50;;;;;;;3.12;50.19;100119.07;231429;1196;138701;-72
2023/02/04 13:10:54;;;;;;;3.10;2.00;;;;;;;2.96;49.63;100117.71;229124;1196;138920;-71
2023/02/04 13:15:57;;;;;;;3.30;2.10;;;;;;;2.87;50.43;100129.75;231780;1194;138473;-72
2023/02/04 13:21:01;;;;;;;4.20;2.30;;;;;;;3.13;50.65;100128.34;232610;1195;139317;-73
2023/02/04 13:26:05;;;;;;;5.00;2.20;;;;;;;3.40;50.03;100126.02;228745;1198;139637;-72
2023/02/04 13:31:08;;;;;;;3.30;1.90;;;;;;;3.56;49.30;100129.10;229701;1195;139041;-71
2023/02/04 13:36:12;;;;;;;3.60;2.00;;;;;;;3.51;47.97;100135.48;229294;1197;138815;-72
2023/02/04 13:41:16;;;;;;;3.20;2.20;;;;;;;3.63;48.14;100134.95;230191;1198;138787;-72
2023/02/04 13:46:20;;;;;;;4.90;2.20;;;;;;;3.72;48.29;100139.02;229201;1197;138359;-73
2023/02/04 13:51:24;;;;;;;4.60;2.50;;;;;;;3.79;47.32;100153.12;231658;1193;138640;-72
2023/02/04 13:56:29;;;;;;;4.10;2.10;;;;;;;3.81;47.24;100157.30;232444;1193;138527;-72
2023/02/04 14:01:32;;;;;;;6.90;2.60;;;;;;;3.85;46.99;100164.26;230694;1195;138405;-72
2023/02/04 14:06:42;;;;;;;4.90;2.30;;;;;;;4.17;54.31;100169.66;231027;1193;138899;-72
2023/02/04 14:11:45;;;;;;;4.60;2.30;;;;;;;5.32;50.34;100165.42;229785;1197;138646;-71
2023/02/04 14:16:49;;;;;;;6.30;2.60;;;;;;;4.75;46.40;100177.36;232981;1193;138841;-69
2023/02/04 14:21:52;;;;;;;5.60;2.40;;;;;;;4.24;46.33;100190.45;231413;1197;138863;-70
2023/02/04 14:26:56;;;;;;;5.10;2.70;;;;;;;3.81;46.59;100194.50;230631;1197;140595;-73
2023/02/04 14:31:59;;;;;;;4.40;2.70;;;;;;;3.47;47.19;100199.93;233519;1197;138665;-72
2023/02/04 14:37:03;;;;;;;7.10;3.40;;;;;;;3.24;48.28;100199.73;229369;1197;138432;-74
2023/02/04 14:42:08;;;;;;;6.60;3.10;;;;;;;2.98;48.61;100207.77;232543;1193;139608;-79
2023/02/04 14:47:11;;;;;;;5.80;3.20;;;;;;;2.68;49.02;100206.73;229520;1198;139308;-69
2023/02/04 14:52:16;;;;;;;7.00;2.90;;;;;;;2.60;49.92;100206.27;230811;1193;138826;-70
2023/02/04 14:57:20;;;;;;;4.70;2.70;;;;;;;2.48;50.30;100212.55;230792;1199;140060;-72
2023/02/04 15:02:23;;;;;;;9.70;3.50;;;;;;;2.23;50.57;100223.30;230421;1198;138970;-72
2023/02/04 15:07:27;;;;;;;6.90;3.30;;;;;;;2.10;51.33;100229.89;230133;1193;138477;-71
2023/02/04 15:12:30;;;;;;;6.70;3.60;;;;;;;1.99;51.86;100236.63;230917;1197;139247;-68
2023/02/04 15:17:34;;;;;;;5.90;3.40;;;;;;;1.96;52.59;100246.63;231910;1193;139466;-73
2023/02/04 15:22:38;;;;;;;7.70;3.50;;;;;;;1.91;52.84;100251.39;235543;1193;139316;-67
2023/02/04 15:27:41;;;;;;;7.10;3.10;;;;;;;1.82;53.30;100263.00;232795;1198;138915;-72
2023/02/04 15:32:45;;;;;;;5.30;2.70;;;;;;;1.76;53.20;100272.66;231463;1193;139811;-70
2023/02/04 15:37:48;;;;;;;8.00;3.00;;;;;;;1.78;53.29;100274.92;233926;1197;138850;-71
2023/02/04 15:42:52;;;;;;;5.80;3.20;;;;;;;1.79;53.14;100280.52;230403;1197;139291;-71
2023/02/04 15:47:55;;;;;;;7.80;3.30;;;;;;;1.73;53.17;100295.24;229317;1198;139183;-73
2023/02/04 15:52:58;;;;;;;7.90;3.40;;;;;;;1.65;53.67;100296.52;231404;1195;139039;-74
2023/02/04 15:58:02;;;;;;;6.60;3.30;;;;;;;1.64;54.01;100304.73;231315;1196;139058;-74
2023/02/04 16:03:05;;;;;;;21.70;16.50;;;;;;;1.63;56.68;100311.05;230623;1196;138503;-71
2023/02/04 16:08:09;;;;;;;6.90;3.50;;;;;;;2.08;56.86;100309.03;230009;1197;139178;-82
2023/02/04 16:13:12;;;;;;;8.50;4.10;;;;;;;2.06;54.69;100315.15;230545;1197;138368;-74
2023/02/04 16:18:15;;;;;;;11.20;5.00;;;;;;;1.87;55.08;100326.30;232734;1193;138495;-70
